Temp: 5.3°C   Baro: 1014.0mb
  Wind: 2.0mph   Dir: ESE (109°)
  Rain: 1.4mm (0.0mm/hr)
  Solar: 0W/m2  Hum: 95%
 
Bath Spa Weather Station Historical Data
 
Daily Summary for November 28, 2020 Units:  Metric    English   Both
Daily Weekly Monthly Yearly Custom
  Current: High: Low: Average:
Temperature: 5.4 °C 5.4 °C 4.8 °C 5.1 °C
Dew Point: 5.2 °C 5.2 °C 4.1 °C 4.6 °C
Humidity: 94.8% 95% 92% 93%
Wind Speed: 6.3km/h 10.6km/h 3.1km/h 6.1km/h
Wind Gust: 16.1km/h 24.1km/h - -
WindEast - - ESE
Pressure: 1014.1 hPa 1015.1 hPa 1013.8 hPa -
Precipitation: 1.52 mm      
Historical Graphs
 
 
Tabular Data for November 28, 2020
Time Temperature Dew Point Pressure Wind Wind Speed Wind Gust Humidity Rainfall Rate (Hourly) solar
00:04 4.8 °C 4.1 °C 1014.8 hPa ENE 4.3 km/h 12.9 km/h 92% 0 mm 0 W/m2
00:09 4.8 °C 4.1 °C 1014.8 hPa ESE 5.8 km/h 16.1 km/h 92% 0 mm 0 W/m2
00:13 4.8 °C 4.1 °C 1015.1 hPa ESE 4.8 km/h 14.5 km/h 92% 0 mm 0 W/m2
00:19 4.8 °C 4.2 °C 1015.1 hPa ESE 6.8 km/h 14.5 km/h 92.3% 0 mm 0 W/m2
00:24 4.8 °C 4.2 °C 1015.1 hPa ESE 3.5 km/h 14.5 km/h 92.2% 0 mm 0 W/m2
00:29 4.8 °C 4.1 °C 1015.1 hPa ESE 7.4 km/h 14.5 km/h 92% 0 mm 0 W/m2
00:34 4.8 °C 4.2 °C 1014.8 hPa East 3.7 km/h 14.5 km/h 92.2% 0 mm 0 W/m2
00:39 4.8 °C 4.2 °C 1014.8 hPa ESE 5.3 km/h 14.5 km/h 92.4% 0 mm 0 W/m2
00:44 4.8 °C 4.2 °C 1014.8 hPa East 10.3 km/h 17.7 km/h 92.8% 0 mm 0 W/m2
00:49 4.9 °C 4.4 °C 1014.4 hPa ESE 6.6 km/h 16.1 km/h 93% 0 mm 0 W/m2
00:54 4.9 °C 4.3 °C 1014.4 hPa East 6.4 km/h 16.1 km/h 92.6% 0 mm 0 W/m2
00:59 4.9 °C 4.3 °C 1014.4 hPa East 6 km/h 16.1 km/h 92.2% 0 mm 0 W/m2
01:04 4.9 °C 4.2 °C 1014.4 hPa East 8.9 km/h 16.1 km/h 92% 0 mm 0 W/m2
01:09 4.9 °C 4.3 °C 1014.4 hPa ESE 8.5 km/h 20.9 km/h 92.2% 0 mm 0 W/m2
01:14 4.9 °C 4.2 °C 1014.4 hPa ESE 9 km/h 24.1 km/h 92% 0 mm 0 W/m2
01:19 4.9 °C 4.2 °C 1014.4 hPa ESE 8.4 km/h 17.7 km/h 92% 0 mm 0 W/m2
01:24 4.9 °C 4.2 °C 1014.4 hPa East 9.7 km/h 17.7 km/h 92% 0 mm 0 W/m2
01:29 4.9 °C 4.2 °C 1014.4 hPa East 10.6 km/h 17.7 km/h 92% 0 mm 0 W/m2
01:34 4.9 °C 4.2 °C 1014.4 hPa ENE 6.4 km/h 16.1 km/h 92% 0 mm 0 W/m2
01:39 4.9 °C 4.2 °C 1014.4 hPa East 6.4 km/h 14.5 km/h 92% 0 mm 0 W/m2
01:44 4.9 °C 4.2 °C 1014.4 hPa ESE 6 km/h 16.1 km/h 92% 0 mm 0 W/m2
01:49 4.9 °C 4.2 °C 1014.4 hPa ESE 4.5 km/h 16.1 km/h 92% 0 mm 0 W/m2
01:54 4.9 °C 4.3 °C 1014.4 hPa ESE 5.5 km/h 12.9 km/h 92.4% 0 mm 0 W/m2
01:59 5 °C 4.5 °C 1014.4 hPa East 7.7 km/h 16.1 km/h 93% 0 mm 0 W/m2
02:04 5.1 °C 4.6 °C 1014.4 hPa ESE 4.7 km/h 16.1 km/h 93% 0 mm 0 W/m2
02:09 5.1 °C 4.6 °C 1014.4 hPa ESE 3.1 km/h 9.7 km/h 93% 0 mm 0 W/m2
02:14 5.1 °C 4.6 °C 1014.4 hPa ESE 4.7 km/h 14.5 km/h 93% 0 mm 0 W/m2
02:19 5.1 °C 4.6 °C 1014.4 hPa ESE 6 km/h 14.5 km/h 93% 0 mm 0 W/m2
02:24 5.1 °C 4.6 °C 1014.4 hPa ESE 6 km/h 12.9 km/h 93% 0 mm 0 W/m2
02:29 5.2 °C 4.7 °C 1014.4 hPa ESE 6 km/h 12.9 km/h 93% 0 mm 0 W/m2
02:34 5.2 °C 4.7 °C 1014.4 hPa ESE 4.8 km/h 9.7 km/h 93% 0 mm 0 W/m2
02:39 5.2 °C 4.7 °C 1014.4 hPa SE 5.1 km/h 9.7 km/h 93% 0 mm 0 W/m2
02:44 5.2 °C 4.7 °C 1014.4 hPa SSE 3.9 km/h 9.7 km/h 93% 0 mm 0 W/m2
02:49 5.2 °C 4.7 °C 1014.4 hPa SE 3.9 km/h 11.3 km/h 93% 0 mm 0 W/m2
02:54 5.3 °C 4.8 °C 1014.4 hPa SE 6 km/h 14.5 km/h 93% 0 mm 0 W/m2
02:59 5.3 °C 4.8 °C 1014.4 hPa ESE 5.6 km/h 11.3 km/h 93% 0.25 mm 0 W/m2
03:03 5.3 °C 4.8 °C 1014.4 hPa ESE 5.1 km/h 16.1 km/h 93% 0.25 mm 0 W/m2
03:09 5.3 °C 4.8 °C 1014.4 hPa SE 5.8 km/h 16.1 km/h 93% 0.25 mm 0 W/m2
03:14 5.3 °C 4.8 °C 1014.4 hPa ESE 6.6 km/h 14.5 km/h 93% 0.25 mm 0 W/m2
03:19 5.3 °C 4.8 °C 1014.4 hPa ESE 5.3 km/h 14.5 km/h 93% 0.25 mm 0 W/m2
03:24 5.3 °C 4.9 °C 1014.4 hPa ESE 7.9 km/h 14.5 km/h 93.8% 0.51 mm 0 W/m2
03:29 5.3 °C 4.9 °C 1014.4 hPa ESE 5.8 km/h 20.9 km/h 94% 0.76 mm 0 W/m2
03:34 5.3 °C 4.8 °C 1014.1 hPa SE 5.1 km/h 16.1 km/h 93.6% 0.76 mm 0 W/m2
03:39 5.3 °C 4.8 °C 1014.1 hPa ESE 7.9 km/h 16.1 km/h 93.6% 0.76 mm 0 W/m2
03:44 5.3 °C 4.9 °C 1013.8 hPa ESE 8.4 km/h 19.3 km/h 94% 0.76 mm 0 W/m2
03:49 5.3 °C 4.9 °C 1014.1 hPa SE 6.3 km/h 14.5 km/h 94% 1.02 mm 0 W/m2
03:54 5.2 °C 4.8 °C 1014.1 hPa SE 5.3 km/h 14.5 km/h 94% 1.02 mm 0 W/m2
03:59 5.2 °C 4.8 °C 1014.1 hPa SE 4.8 km/h 9.7 km/h 94% 1.02 mm 0 W/m2
04:04 5.2 °C 4.8 °C 1014.1 hPa ESE 5.3 km/h 16.1 km/h 94% 0.76 mm 0 W/m2
04:09 5.2 °C 4.8 °C 1014.1 hPa SE 4.5 km/h 14.5 km/h 94% 0.76 mm 0 W/m2
04:14 5.1 °C 4.7 °C 1014.1 hPa SE 3.7 km/h 8 km/h 94% 0.76 mm 0 W/m2
04:19 5 °C 4.6 °C 1014.1 hPa SE 4.5 km/h 8 km/h 94% 0.76 mm 0 W/m2
04:24 5 °C 4.6 °C 1014.1 hPa ESE 3.9 km/h 9.7 km/h 94% 0.51 mm 0 W/m2
04:29 5.2 °C 4.7 °C 1014.1 hPa ESE 6.3 km/h 17.7 km/h 94% 0.51 mm 0 W/m2
04:34 5.2 °C 4.8 °C 1014.1 hPa ESE 6.6 km/h 14.5 km/h 94% 0.25 mm 0 W/m2
04:39 5.2 °C 4.8 °C 1014.1 hPa ESE 6 km/h 12.9 km/h 94% 0.25 mm 0 W/m2
04:44 5.3 °C 4.9 °C 1014.1 hPa ESE 4.5 km/h 12.9 km/h 94% 0.25 mm 0 W/m2
04:49 5.3 °C 4.9 °C 1014.1 hPa ESE 5 km/h 17.7 km/h 94% 0 mm 0 W/m2
04:54 5.3 °C 4.9 °C 1014.1 hPa East 6.6 km/h 19.3 km/h 94% 0.25 mm 0 W/m2
04:58 5.3 °C 4.9 °C 1014.1 hPa East 8 km/h 14.5 km/h 94% 0.25 mm 0 W/m2
05:04 5.3 °C 4.9 °C 1014.1 hPa East 6.6 km/h 16.1 km/h 94% 0.25 mm 0 W/m2
05:09 5.3 °C 4.9 °C 1014.1 hPa ESE 4.8 km/h 12.9 km/h 94% 0.25 mm 0 W/m2
05:14 5.3 °C 4.9 °C 1014.1 hPa ESE 9.3 km/h 17.7 km/h 94% 0.25 mm 0 W/m2
05:19 5.3 °C 5.1 °C 1014.1 hPa ESE 7.2 km/h 14.5 km/h 94.8% 0.51 mm 0 W/m2
05:24 5.3 °C 5.1 °C 1014.1 hPa ESE 5.1 km/h 16.1 km/h 95% 0.51 mm 0 W/m2
05:29 5.4 °C 5.2 °C 1014.1 hPa East 6.3 km/h 16.1 km/h 94.8% 0.51 mm 0 W/m2
Bath Spa Weather
Compliments of Weather Underground - 2 mb